createdAt,value
2022-07-26T00:00:25.209Z,97343.50
2022-07-26T00:02:55.330Z,97350.84
2022-07-26T00:05:25.643Z,97363.06
2022-07-26T00:08:10.897Z,97375.88
2022-07-26T00:10:44.185Z,97383.94
2022-07-26T00:13:17.568Z,97381.75
2022-07-26T00:15:48.420Z,97393.19
2022-07-26T00:18:20.392Z,97402.44
2022-07-26T00:20:50.769Z,97427.41
2022-07-26T00:23:22.126Z,97440.63
2022-07-26T00:25:52.374Z,97428.38
2022-07-26T00:28:25.191Z,97416.19
2022-07-26T00:30:55.361Z,97402.19
2022-07-26T00:33:25.503Z,97413.78
2022-07-26T00:35:55.733Z,97413.53
2022-07-26T00:38:25.874Z,97424.03
2022-07-26T00:40:56.499Z,97436.13
2022-07-26T00:43:29.427Z,97442.25
2022-07-26T00:45:59.915Z,97441.25
2022-07-26T00:48:30.203Z,97437.47
2022-07-26T00:51:01.073Z,97429.66
2022-07-26T00:53:31.283Z,97447.63
2022-07-26T00:56:01.945Z,97426.41
2022-07-26T00:58:34.779Z,97435.09
2022-07-26T01:01:05.014Z,97433.28
2022-07-26T01:03:36.277Z,97440.22
2022-07-26T01:06:09.982Z,97427.94
2022-07-26T01:08:40.619Z,97431.09
2022-07-26T01:11:10.881Z,97433.75
2022-07-26T01:13:50.095Z,97451.44
2022-07-26T01:16:20.747Z,97461.03
2022-07-26T01:18:50.997Z,97444.19
2022-07-26T01:21:22.263Z,97456.88
2022-07-26T01:23:55.092Z,97451.25
2022-07-26T01:26:25.736Z,97447.53
2022-07-26T01:28:56.133Z,97447.28
2022-07-26T01:31:27.327Z,97453.53
2022-07-26T01:33:57.522Z,97447.28
2022-07-26T01:36:28.040Z,97456.13
2022-07-26T01:39:00.853Z,97447.69
2022-07-26T01:41:37.357Z,97444.69
2022-07-26T01:44:10.396Z,97441.28
2022-07-26T01:46:40.875Z,97445.06
2022-07-26T01:49:11.336Z,97435.50
2022-07-26T01:51:41.579Z,97441.91
2022-07-26T01:54:14.595Z,97439.19
2022-07-26T01:56:46.055Z,97444.31
2022-07-26T01:59:16.251Z,97432.56
2022-07-26T02:01:46.529Z,97430.44
2022-07-26T02:04:29.177Z,97426.88
2022-07-26T02:06:59.758Z,97428.66
2022-07-26T02:09:39.826Z,97427.09
2022-07-26T02:12:11.667Z,97430.34
2022-07-26T02:14:41.940Z,97439.81
2022-07-26T02:17:12.192Z,97446.31
2022-07-26T02:19:42.837Z,97437.84
2022-07-26T02:22:13.563Z,97441.94
2022-07-26T02:24:46.396Z,97441.84
2022-07-26T02:27:16.864Z,97448.22
2022-07-26T02:29:46.875Z,97456.13
2022-07-26T02:32:17.125Z,97445.97
2022-07-26T02:34:47.364Z,97438.75
2022-07-26T02:37:17.479Z,97447.03
2022-07-26T02:39:50.352Z,97442.31
2022-07-26T02:42:20.558Z,97435.34
2022-07-26T02:44:50.714Z,97448.78
2022-07-26T02:47:20.923Z,97447.63
2022-07-26T02:49:51.142Z,97445.56
2022-07-26T02:52:21.507Z,97456.88
2022-07-26T02:54:54.299Z,97460.44
2022-07-26T02:57:24.786Z,97466.56
2022-07-26T02:59:54.672Z,97473.34
2022-07-26T03:02:24.841Z,97472.75
2022-07-26T03:04:55.083Z,97477.09
2022-07-26T03:07:25.229Z,97473.47
2022-07-26T03:09:58.357Z,97474.75
2022-07-26T03:12:29.263Z,97473.63
2022-07-26T03:14:59.410Z,97473.22
2022-07-26T03:17:29.791Z,97470.03
2022-07-26T03:20:03.127Z,97470.97
2022-07-26T03:22:33.332Z,97474.91
2022-07-26T03:25:06.738Z,97464.53
2022-07-26T03:27:37.118Z,97466.25
2022-07-26T03:30:08.713Z,97463.97
2022-07-26T03:32:38.977Z,97464.78
2022-07-26T03:35:10.942Z,97458.19
2022-07-26T03:37:45.629Z,97468.94
2022-07-26T03:40:20.810Z,97462.38
2022-07-26T03:42:51.707Z,97463.09
2022-07-26T03:45:22.036Z,97456.72
2022-07-26T03:47:53.516Z,97454.81
2022-07-26T03:50:23.719Z,97462.72
2022-07-26T03:52:53.866Z,97470.28
2022-07-26T03:55:39.183Z,97463.94
2022-07-26T03:58:09.310Z,97472.25
2022-07-26T04:00:39.725Z,97473.56
2022-07-26T04:03:09.596Z,97475.66
2022-07-26T04:05:40.731Z,97476.06
2022-07-26T04:08:19.202Z,97471.56
2022-07-26T04:10:53.892Z,97483.59
2022-07-26T04:13:24.359Z,97479.84
2022-07-26T04:15:55.021Z,97469.25
2022-07-26T04:18:26.760Z,97482.97
2022-07-26T04:20:56.995Z,97489.00
2022-07-26T04:23:27.287Z,97498.22
2022-07-26T04:26:00.075Z,97493.09
2022-07-26T04:28:30.314Z,97501.38
2022-07-26T04:31:01.731Z,97502.69
2022-07-26T04:33:33.183Z,97501.41
2022-07-26T04:36:04.039Z,97488.63
2022-07-26T04:38:34.800Z,97497.25
2022-07-26T04:41:07.728Z,97497.06
2022-07-26T04:43:38.034Z,97499.69
2022-07-26T04:46:08.489Z,97498.03
2022-07-26T04:48:41.252Z,97491.50
2022-07-26T04:51:11.420Z,97498.66
2022-07-26T04:53:41.562Z,97503.56
2022-07-26T04:56:14.557Z,97499.41
2022-07-26T04:58:44.785Z,97508.81
2022-07-26T05:01:15.260Z,97507.31
2022-07-26T05:03:45.257Z,97515.03
2022-07-26T05:06:15.415Z,97509.22
2022-07-26T05:08:45.816Z,97514.03
2022-07-26T05:11:18.382Z,97514.00
2022-07-26T05:13:48.518Z,97514.16
2022-07-26T05:16:18.853Z,97524.53
2022-07-26T05:18:49.585Z,97522.47
2022-07-26T05:21:21.313Z,97519.81
2022-07-26T05:23:51.492Z,97520.00
2022-07-26T05:26:24.566Z,97522.69
2022-07-26T05:28:56.124Z,97520.25
2022-07-26T05:31:26.567Z,97533.97
2022-07-26T05:33:56.559Z,97530.78
2022-07-26T05:36:26.859Z,97525.50
2022-07-26T05:38:57.122Z,97525.69
2022-07-26T05:41:30.399Z,97523.41
2022-07-26T05:44:00.693Z,97521.16
2022-07-26T05:46:30.937Z,97527.41
2022-07-26T05:49:01.481Z,97532.31
2022-07-26T05:51:31.515Z,97530.03
2022-07-26T05:54:02.941Z,97533.13
2022-07-26T05:56:36.078Z,97534.06
2022-07-26T05:59:06.382Z,97544.59
2022-07-26T06:01:36.703Z,97544.94
2022-07-26T06:04:09.504Z,97533.31
2022-07-26T06:06:40.056Z,97536.91
2022-07-26T06:09:10.252Z,97544.97
2022-07-26T06:11:43.051Z,97546.88
2022-07-26T06:14:13.625Z,97548.75
2022-07-26T06:16:44.456Z,97550.44
2022-07-26T06:19:14.394Z,97553.47
2022-07-26T06:21:45.790Z,97541.25
2022-07-26T06:24:16.418Z,97549.13
2022-07-26T06:26:54.752Z,97552.72
2022-07-26T06:29:32.139Z,97550.28
2022-07-26T06:32:03.096Z,97546.13
2022-07-26T06:34:33.106Z,97555.16
2022-07-26T06:37:03.891Z,97558.16
2022-07-26T06:39:34.068Z,97552.53
2022-07-26T06:42:07.267Z,97552.91
2022-07-26T06:44:37.464Z,97563.09
2022-07-26T06:47:08.141Z,97557.78
2022-07-26T06:49:38.404Z,97556.84
2022-07-26T06:52:08.999Z,97551.13
2022-07-26T06:54:39.101Z,97553.91
2022-07-26T06:57:12.025Z,97552.34
2022-07-26T06:59:42.235Z,97552.00
2022-07-26T07:02:12.663Z,97548.56
2022-07-26T07:04:42.952Z,97552.31
2022-07-26T07:07:13.268Z,97550.84
2022-07-26T07:09:45.068Z,97557.66
2022-07-26T07:12:17.644Z,97553.78
2022-07-26T07:14:47.960Z,97554.88
2022-07-26T07:17:22.673Z,97543.09
2022-07-26T07:19:53.048Z,97549.34
2022-07-26T07:22:23.375Z,97548.94
2022-07-26T07:24:53.264Z,97549.69
2022-07-26T07:27:27.279Z,97549.75
2022-07-26T07:29:57.783Z,97541.59
2022-07-26T07:32:27.741Z,97538.50
2022-07-26T07:34:58.691Z,97541.47
2022-07-26T07:37:28.962Z,97541.84
2022-07-26T07:40:19.175Z,97541.16
2022-07-26T07:42:51.912Z,97547.56
2022-07-26T07:45:22.280Z,97538.13
2022-07-26T07:47:52.179Z,97541.94
2022-07-26T07:50:22.301Z,97538.91
2022-07-26T07:52:59.087Z,97542.84
2022-07-26T07:55:41.081Z,97537.06
2022-07-26T07:58:18.939Z,97544.31
2022-07-26T08:00:50.003Z,97538.81
2022-07-26T08:03:20.325Z,97536.97
2022-07-26T08:05:51.080Z,97530.72
2022-07-26T08:08:23.024Z,97537.06
2022-07-26T08:10:54.958Z,97546.41
2022-07-26T08:13:29.643Z,97538.91
2022-07-26T08:16:00.877Z,97530.63
2022-07-26T08:18:31.192Z,97518.75
2022-07-26T08:21:01.147Z,97524.84
2022-07-26T08:23:31.370Z,97529.59
2022-07-26T08:26:06.304Z,97531.03
2022-07-26T08:28:48.111Z,97535.97
2022-07-26T08:31:21.180Z,97527.88
2022-07-26T08:33:51.985Z,97540.50
2022-07-26T08:36:22.165Z,97526.13
2022-07-26T08:38:52.650Z,97549.28
2022-07-26T08:41:23.314Z,97545.47
2022-07-26T08:43:56.319Z,97547.50
2022-07-26T08:46:28.372Z,97539.31
2022-07-26T08:48:59.352Z,97541.63
2022-07-26T08:51:30.409Z,97550.72
2022-07-26T08:54:06.312Z,97555.91
2022-07-26T08:56:38.908Z,97541.22
2022-07-26T08:59:21.676Z,97549.88
2022-07-26T09:01:59.214Z,97559.41
2022-07-26T09:04:34.546Z,97554.66
2022-07-26T09:07:10.426Z,97561.34
2022-07-26T09:10:00.282Z,97560.00
2022-07-26T09:12:32.554Z,97551.44
2022-07-26T09:15:09.867Z,97558.06
2022-07-26T09:17:45.969Z,97563.31
2022-07-26T09:20:18.978Z,97557.72
2022-07-26T09:23:05.047Z,97553.84
2022-07-26T09:25:37.539Z,97566.16
2022-07-26T09:28:24.909Z,97566.59
2022-07-26T09:31:00.697Z,97567.63
2022-07-26T09:33:48.023Z,97569.72
2022-07-26T09:36:21.720Z,97565.19
2022-07-26T09:38:54.206Z,97563.59
2022-07-26T09:41:27.895Z,97559.47
2022-07-26T09:44:00.967Z,97570.31
2022-07-26T09:46:37.981Z,97568.25
2022-07-26T09:49:21.544Z,97569.94
2022-07-26T09:51:53.857Z,97573.97
2022-07-26T09:54:35.471Z,97567.94
2022-07-26T09:57:06.171Z,97575.00
2022-07-26T09:59:36.611Z,97575.41
2022-07-26T10:02:10.413Z,97567.50
2022-07-26T10:04:40.851Z,97564.19
2022-07-26T10:07:11.755Z,97574.41
2022-07-26T10:09:50.456Z,97574.59
2022-07-26T10:12:24.955Z,97571.31
2022-07-26T10:14:57.542Z,97577.66
2022-07-26T10:17:51.608Z,97572.88
2022-07-26T10:20:47.257Z,97579.16
2022-07-26T10:23:45.684Z,97579.41
2022-07-26T10:26:43.109Z,97579.84
2022-07-26T10:29:29.718Z,97574.19
2022-07-26T10:32:21.208Z,97573.59
2022-07-26T10:34:54.099Z,97574.88
2022-07-26T10:37:29.864Z,97571.78
2022-07-26T10:40:25.614Z,97572.69
2022-07-26T10:42:55.977Z,97563.31
2022-07-26T10:45:27.289Z,97555.91
2022-07-26T10:48:18.673Z,97554.97
2022-07-26T10:50:54.818Z,97559.78
2022-07-26T10:53:27.966Z,97550.75
2022-07-26T10:56:01.549Z,97562.66
2022-07-26T10:58:45.006Z,97558.19
2022-07-26T11:01:16.229Z,97573.47
2022-07-26T11:03:48.155Z,97567.94
2022-07-26T11:06:22.751Z,97566.16
2022-07-26T11:08:52.932Z,97571.81
2022-07-26T11:11:32.604Z,97567.13
2022-07-26T11:14:12.511Z,97578.72
2022-07-26T11:16:45.261Z,97570.22
2022-07-26T11:19:17.864Z,97567.78
2022-07-26T11:21:58.773Z,97559.22
2022-07-26T11:24:29.522Z,97564.94
2022-07-26T11:27:01.138Z,97561.28
2022-07-26T11:29:38.491Z,97576.19
2022-07-26T11:32:22.136Z,97566.69
2022-07-26T11:35:02.016Z,97557.47
2022-07-26T11:37:34.729Z,97559.84
2022-07-26T11:40:05.058Z,97557.25
2022-07-26T11:42:35.310Z,97551.47
2022-07-26T11:45:05.663Z,97555.84
2022-07-26T11:47:36.890Z,97564.13
2022-07-26T11:50:22.544Z,97567.69
2022-07-26T11:52:56.504Z,97555.53
2022-07-26T11:55:31.617Z,97561.09
2022-07-26T11:58:08.896Z,97554.25
2022-07-26T12:00:39.635Z,97557.66
2022-07-26T12:03:09.922Z,97549.16
2022-07-26T12:05:42.140Z,97559.47
2022-07-26T12:08:14.991Z,97554.38
2022-07-26T12:10:45.213Z,97542.25
2022-07-26T12:13:19.112Z,97547.50
2022-07-26T12:15:51.755Z,97540.59
2022-07-26T12:18:27.553Z,97537.13
2022-07-26T12:21:05.608Z,97531.84
2022-07-26T12:23:51.234Z,97538.28
2022-07-26T12:26:26.726Z,97550.59
2022-07-26T12:28:57.971Z,97545.06
2022-07-26T12:31:31.363Z,97537.03
2022-07-26T12:34:02.261Z,97539.56
2022-07-26T12:36:32.471Z,97542.56
2022-07-26T12:39:05.755Z,97539.47
2022-07-26T12:41:38.503Z,97539.56
2022-07-26T12:44:12.750Z,97525.88
2022-07-26T12:46:45.019Z,97524.22
2022-07-26T12:49:15.967Z,97522.72
2022-07-26T12:51:46.221Z,97536.75
2022-07-26T12:54:19.065Z,97531.47
2022-07-26T12:56:49.285Z,97529.13
2022-07-26T12:59:19.787Z,97526.69
2022-07-26T13:01:50.140Z,97527.84
2022-07-26T13:04:20.563Z,97529.94
2022-07-26T13:06:50.825Z,97528.91
2022-07-26T13:09:23.630Z,97525.97
2022-07-26T13:11:53.869Z,97532.91
2022-07-26T13:14:24.167Z,97530.06
2022-07-26T13:16:54.399Z,97530.13
2022-07-26T13:19:24.896Z,97538.19
2022-07-26T13:21:55.201Z,97541.06
2022-07-26T13:24:29.040Z,97533.13
2022-07-26T13:27:00.971Z,97527.63
2022-07-26T13:29:32.085Z,97527.00
2022-07-26T13:32:02.410Z,97544.06
2022-07-26T13:34:35.042Z,97546.81
2022-07-26T13:37:08.254Z,97548.09
2022-07-26T13:39:42.038Z,97549.56
2022-07-26T13:42:12.282Z,97538.66
2022-07-26T13:44:42.453Z,97543.50
2022-07-26T13:47:12.688Z,97540.53
2022-07-26T13:49:42.879Z,97544.63
2022-07-26T13:52:16.694Z,97541.50
2022-07-26T13:54:49.860Z,97552.84
2022-07-26T13:57:20.100Z,97544.84
2022-07-26T13:59:50.329Z,97556.59
2022-07-26T14:02:20.930Z,97549.09
2022-07-26T14:04:51.367Z,97551.53
2022-07-26T14:07:21.600Z,97550.78
2022-07-26T14:09:54.392Z,97553.41
2022-07-26T14:12:24.607Z,97559.19
2022-07-26T14:14:54.761Z,97555.84
2022-07-26T14:17:24.951Z,97554.69
2022-07-26T14:19:55.129Z,97561.44
2022-07-26T14:22:25.715Z,97565.56
2022-07-26T14:24:58.519Z,97568.59
2022-07-26T14:27:28.766Z,97569.31
2022-07-26T14:29:59.041Z,97564.41
2022-07-26T14:32:29.305Z,97563.06
2022-07-26T14:34:59.685Z,97559.25
2022-07-26T14:37:43.342Z,97566.84
2022-07-26T14:40:20.509Z,97563.09
2022-07-26T14:42:50.792Z,97564.78
2022-07-26T14:45:20.981Z,97571.75
2022-07-26T14:47:51.237Z,97571.03
2022-07-26T14:50:23.517Z,97568.13
2022-07-26T14:52:53.741Z,97567.50
2022-07-26T14:55:26.611Z,97569.75
2022-07-26T14:57:56.783Z,97565.94
2022-07-26T15:00:27.062Z,97570.06
2022-07-26T15:02:57.537Z,97566.81
2022-07-26T15:05:28.090Z,97552.84
2022-07-26T15:08:01.627Z,97566.63
2022-07-26T15:10:41.386Z,97568.38
2022-07-26T15:13:12.923Z,97558.16
2022-07-26T15:15:43.334Z,97565.09
2022-07-26T15:18:13.723Z,97558.41
2022-07-26T15:20:44.622Z,97555.72
2022-07-26T15:23:16.121Z,97560.59
2022-07-26T15:25:49.188Z,97562.81
2022-07-26T15:28:19.886Z,97581.00
2022-07-26T15:30:50.168Z,97571.31
2022-07-26T15:33:20.919Z,97562.16
2022-07-26T15:35:53.369Z,97566.59
2022-07-26T15:38:23.566Z,97575.88
2022-07-26T15:40:56.463Z,97579.88
2022-07-26T15:43:44.091Z,97573.78
2022-07-26T15:46:19.757Z,97578.00
2022-07-26T15:48:52.073Z,97573.34
2022-07-26T15:51:25.074Z,97574.63
2022-07-26T15:53:55.272Z,97577.13
2022-07-26T15:56:28.224Z,97589.72
2022-07-26T15:58:58.376Z,97593.78
2022-07-26T16:01:28.659Z,97594.03
2022-07-26T16:03:58.976Z,97598.53
2022-07-26T16:06:29.144Z,97598.84
2022-07-26T16:09:18.114Z,97604.38
2022-07-26T16:11:52.859Z,97602.84
2022-07-26T16:14:23.116Z,97600.63
2022-07-26T16:16:53.295Z,97609.19
2022-07-26T16:19:23.530Z,97606.81
2022-07-26T16:21:53.667Z,97603.78
2022-07-26T16:24:25.684Z,97609.97
2022-07-26T16:26:58.647Z,97606.19
2022-07-26T16:29:28.880Z,97612.34
2022-07-26T16:31:59.200Z,97607.53
2022-07-26T16:34:30.259Z,97617.44
2022-07-26T16:37:00.408Z,97617.38
2022-07-26T16:39:30.482Z,97624.59
2022-07-26T16:42:06.802Z,97623.41
2022-07-26T16:44:38.805Z,97626.84
2022-07-26T16:47:09.236Z,97633.59
2022-07-26T16:49:39.574Z,97637.34
2022-07-26T16:52:09.934Z,97635.88
2022-07-26T16:54:40.113Z,97635.13
2022-07-26T16:57:13.081Z,97642.41
2022-07-26T16:59:43.286Z,97651.00
2022-07-26T17:02:13.408Z,97647.13
2022-07-26T17:04:43.651Z,97650.03
2022-07-26T17:07:28.888Z,97649.13
2022-07-26T17:10:00.217Z,97655.09
2022-07-26T17:12:33.207Z,97655.31
2022-07-26T17:15:04.084Z,97655.53
2022-07-26T17:17:34.501Z,97658.63
2022-07-26T17:20:04.507Z,97660.66
2022-07-26T17:22:34.737Z,97653.41
2022-07-26T17:25:04.801Z,97661.06
2022-07-26T17:27:38.039Z,97657.41
2022-07-26T17:30:10.562Z,97661.94
2022-07-26T17:32:40.805Z,97663.84
2022-07-26T17:35:11.456Z,97672.97
2022-07-26T17:37:41.392Z,97676.56
2022-07-26T17:40:16.307Z,97673.00
2022-07-26T17:42:49.306Z,97678.22
2022-07-26T17:45:19.503Z,97676.06
2022-07-26T17:47:49.683Z,97682.63
2022-07-26T17:50:36.020Z,97676.97
2022-07-26T17:53:07.197Z,97687.75
2022-07-26T17:55:37.263Z,97690.75
2022-07-26T17:58:10.062Z,97685.47
2022-07-26T18:00:40.618Z,97681.16
2022-07-26T18:03:10.835Z,97686.22
2022-07-26T18:05:41.625Z,97684.56
2022-07-26T18:08:12.001Z,97686.31
2022-07-26T18:10:44.443Z,97686.38
2022-07-26T18:13:20.681Z,97684.09
2022-07-26T18:15:50.934Z,97691.34
2022-07-26T18:18:21.979Z,97689.16
2022-07-26T18:20:52.578Z,97693.34
2022-07-26T18:23:22.807Z,97688.88
2022-07-26T18:25:53.928Z,97685.94
2022-07-26T18:28:27.053Z,97689.16
2022-07-26T18:30:57.441Z,97687.63
2022-07-26T18:33:27.437Z,97696.56
2022-07-26T18:36:01.860Z,97695.69
2022-07-26T18:38:32.139Z,97694.38
2022-07-26T18:41:02.332Z,97686.66
2022-07-26T18:43:35.904Z,97695.59
2022-07-26T18:46:06.442Z,97703.53
2022-07-26T18:48:37.209Z,97702.81
2022-07-26T18:51:12.061Z,97706.25
2022-07-26T18:53:42.359Z,97704.56
2022-07-26T18:56:12.565Z,97704.03
2022-07-26T18:58:45.411Z,97702.53
2022-07-26T19:01:16.136Z,97698.19
2022-07-26T19:03:46.431Z,97705.94
2022-07-26T19:06:16.724Z,97711.03
2022-07-26T19:08:46.981Z,97708.06
2022-07-26T19:11:17.246Z,97713.56
2022-07-26T19:13:50.109Z,97712.78
2022-07-26T19:16:20.386Z,97719.94
2022-07-26T19:18:55.349Z,97724.47
2022-07-26T19:21:27.532Z,97730.13
2022-07-26T19:23:58.037Z,97720.88
2022-07-26T19:26:28.061Z,97726.56
2022-07-26T19:29:00.885Z,97725.22
2022-07-26T19:31:32.242Z,97734.66
2022-07-26T19:34:02.774Z,97728.59
2022-07-26T19:36:33.091Z,97731.63
2022-07-26T19:39:04.144Z,97733.50
2022-07-26T19:41:34.611Z,97736.69
2022-07-26T19:44:07.706Z,97733.47
2022-07-26T19:46:37.992Z,97738.34
2022-07-26T19:49:10.268Z,97737.97
2022-07-26T19:51:41.262Z,97740.41
2022-07-26T19:54:12.054Z,97743.03
2022-07-26T19:56:42.454Z,97745.47
2022-07-26T19:59:20.950Z,97744.69
2022-07-26T20:01:56.619Z,97755.81
2022-07-26T20:04:28.773Z,97759.19
2022-07-26T20:06:58.997Z,97758.94
2022-07-26T20:09:29.927Z,97760.09
2022-07-26T20:12:00.669Z,97770.78
2022-07-26T20:14:33.523Z,97757.38
2022-07-26T20:17:03.806Z,97767.91
2022-07-26T20:19:42.406Z,97767.28
2022-07-26T20:22:13.761Z,97765.34
2022-07-26T20:24:44.016Z,97769.84
2022-07-26T20:27:14.230Z,97766.09
2022-07-26T20:29:47.080Z,97767.94
2022-07-26T20:32:17.311Z,97780.38
2022-07-26T20:34:48.076Z,97773.00
2022-07-26T20:37:18.265Z,97772.03
2022-07-26T20:39:48.554Z,97777.47
2022-07-26T20:42:21.941Z,97782.72
2022-07-26T20:44:55.504Z,97772.00
2022-07-26T20:47:25.788Z,97773.84
2022-07-26T20:50:01.050Z,97781.22
2022-07-26T20:52:33.367Z,97781.56
2022-07-26T20:55:03.589Z,97785.34
2022-07-26T20:57:34.311Z,97772.94
2022-07-26T21:00:11.886Z,97780.66
2022-07-26T21:02:42.293Z,97780.50
2022-07-26T21:05:13.565Z,97789.88
2022-07-26T21:07:58.672Z,97785.94
2022-07-26T21:10:30.718Z,97797.63
2022-07-26T21:13:01.556Z,97792.53
2022-07-26T21:15:34.801Z,97794.06
2022-07-26T21:18:05.090Z,97787.31
2022-07-26T21:20:35.568Z,97791.28
2022-07-26T21:23:16.841Z,97794.31
2022-07-26T21:25:48.179Z,97795.22
2022-07-26T21:28:18.462Z,97795.19
2022-07-26T21:30:51.422Z,97796.09
2022-07-26T21:33:21.649Z,97792.28
2022-07-26T21:35:51.866Z,97796.84
2022-07-26T21:38:22.118Z,97803.03
2022-07-26T21:40:52.308Z,97801.88
2022-07-26T21:43:22.514Z,97804.13
2022-07-26T21:45:55.404Z,97808.28
2022-07-26T21:48:27.001Z,97812.00
2022-07-26T21:50:57.178Z,97815.38
2022-07-26T21:53:27.347Z,97811.66
2022-07-26T21:55:57.511Z,97809.75
2022-07-26T21:58:28.189Z,97809.53
2022-07-26T22:01:06.040Z,97820.00
2022-07-26T22:03:39.189Z,97811.72
2022-07-26T22:06:10.641Z,97807.81
2022-07-26T22:08:41.014Z,97813.03
2022-07-26T22:11:11.193Z,97826.38
2022-07-26T22:13:42.821Z,97825.63
2022-07-26T22:16:15.761Z,97825.31
2022-07-26T22:18:45.947Z,97814.91
2022-07-26T22:21:16.405Z,97812.13
2022-07-26T22:23:46.570Z,97811.03
2022-07-26T22:26:20.793Z,97816.88
2022-07-26T22:28:50.952Z,97816.75
2022-07-26T22:31:23.824Z,97821.44
2022-07-26T22:33:54.018Z,97819.16
2022-07-26T22:36:24.752Z,97815.78
2022-07-26T22:38:55.171Z,97824.00
2022-07-26T22:41:25.339Z,97826.75
2022-07-26T22:43:55.595Z,97824.53
2022-07-26T22:46:29.453Z,97823.28
2022-07-26T22:48:59.883Z,97834.94
2022-07-26T22:51:30.166Z,97838.44
2022-07-26T22:54:00.472Z,97824.69
2022-07-26T22:56:30.938Z,97829.19
2022-07-26T22:59:01.219Z,97830.06
2022-07-26T23:01:34.101Z,97836.44
2022-07-26T23:04:05.027Z,97835.69
2022-07-26T23:06:36.420Z,97840.84
2022-07-26T23:09:06.864Z,97827.53
2022-07-26T23:11:37.220Z,97830.56
2022-07-26T23:14:07.548Z,97828.28
2022-07-26T23:16:40.970Z,97835.75
2022-07-26T23:19:11.526Z,97838.25
2022-07-26T23:21:41.876Z,97829.16
2022-07-26T23:24:12.326Z,97826.56
2022-07-26T23:26:42.524Z,97838.94
2022-07-26T23:29:13.279Z,97833.06
2022-07-26T23:31:46.470Z,97838.28
2022-07-26T23:34:16.780Z,97837.88
2022-07-26T23:36:47.082Z,97843.00
2022-07-26T23:39:17.479Z,97844.66
2022-07-26T23:41:47.651Z,97844.66
2022-07-26T23:44:17.858Z,97842.47
2022-07-26T23:46:50.757Z,97841.72
2022-07-26T23:49:21.054Z,97844.22
2022-07-26T23:51:51.363Z,97834.50
2022-07-26T23:54:21.615Z,97838.25
2022-07-26T23:56:51.797Z,97831.03
2022-07-26T23:59:22.043Z,97838.38
